createdAt,value
2023-02-17T00:00:16.460Z,-2.97
2023-02-17T00:03:04.392Z,-2.93
2023-02-17T00:05:32.389Z,-2.92
2023-02-17T00:08:00.400Z,-2.93
2023-02-17T00:10:28.395Z,-2.93
2023-02-17T00:12:56.377Z,-2.95
2023-02-17T00:15:24.326Z,-2.98
2023-02-17T00:17:55.233Z,-2.99
2023-02-17T00:20:23.502Z,-3.02
2023-02-17T00:22:51.703Z,-3.05
2023-02-17T00:25:19.688Z,-3.04
2023-02-17T00:27:49.181Z,-3.06
2023-02-17T00:30:18.039Z,-3.05
2023-02-17T00:32:46.145Z,-3.06
2023-02-17T00:35:14.264Z,-3.08
2023-02-17T00:37:45.660Z,-3.07
2023-02-17T00:40:15.614Z,-3.09
2023-02-17T00:42:43.538Z,-3.11
2023-02-17T00:45:11.499Z,-3.12
2023-02-17T00:47:39.566Z,-3.12
2023-02-17T00:50:08.262Z,-3.13
2023-02-17T00:52:36.394Z,-3.12
2023-02-17T00:55:05.232Z,-3.10
2023-02-17T00:57:33.301Z,-3.07
2023-02-17T01:00:02.543Z,-3.02
2023-02-17T01:02:30.586Z,-3.02
2023-02-17T01:04:58.766Z,-3.00
2023-02-17T01:07:26.773Z,-3.00
2023-02-17T01:09:55.164Z,-3.00
2023-02-17T01:12:23.155Z,-3.00
2023-02-17T01:14:55.315Z,-3.02
2023-02-17T01:17:24.798Z,-3.02
2023-02-17T01:19:55.654Z,-3.03
2023-02-17T01:22:24.132Z,-3.01
2023-02-17T01:24:52.285Z,-2.99
2023-02-17T01:27:20.597Z,-2.99
2023-02-17T01:29:49.199Z,-2.99
2023-02-17T01:32:17.324Z,-2.99
2023-02-17T01:34:45.375Z,-2.98
2023-02-17T01:37:15.320Z,-3.00
2023-02-17T01:39:43.522Z,-3.02
2023-02-17T01:42:17.586Z,-3.04
2023-02-17T01:45:19.703Z,-3.06
2023-02-17T01:47:59.417Z,-3.07
2023-02-17T01:50:37.146Z,-3.06
2023-02-17T01:53:09.232Z,-3.03
2023-02-17T01:55:39.702Z,-3.00
2023-02-17T01:58:10.794Z,-2.97
2023-02-17T02:00:39.637Z,-2.96
2023-02-17T02:03:11.278Z,-2.97
2023-02-17T02:05:41.308Z,-2.98
2023-02-17T02:08:11.253Z,-2.99
2023-02-17T02:10:40.014Z,-3.01
2023-02-17T02:13:08.987Z,-3.03
2023-02-17T02:16:21.253Z,-3.04
2023-02-17T02:19:09.766Z,-3.03
2023-02-17T02:22:07.187Z,-3.01
2023-02-17T02:25:17.029Z,-3.01
2023-02-17T02:27:52.964Z,-2.99
2023-02-17T02:30:45.206Z,-2.99
2023-02-17T02:33:43.511Z,-3.03
2023-02-17T02:36:30.095Z,-3.08
2023-02-17T02:39:04.817Z,-3.09
2023-02-17T02:41:41.941Z,-3.13
2023-02-17T02:44:15.723Z,-3.16
2023-02-17T02:46:44.191Z,-3.19
2023-02-17T02:49:12.690Z,-3.20
2023-02-17T02:51:59.567Z,-3.19
2023-02-17T02:54:42.211Z,-3.20
2023-02-17T02:57:29.969Z,-3.19
2023-02-17T03:00:15.662Z,-3.17
2023-02-17T03:02:58.314Z,-3.21
2023-02-17T03:05:42.054Z,-3.23
2023-02-17T03:08:15.953Z,-3.27
2023-02-17T03:10:50.180Z,-3.31
2023-02-17T03:13:19.578Z,-3.34
2023-02-17T03:15:48.288Z,-3.36
2023-02-17T03:18:16.365Z,-3.37
2023-02-17T03:20:56.341Z,-3.36
2023-02-17T03:23:26.428Z,-3.34
2023-02-17T03:25:54.577Z,-3.35
2023-02-17T03:28:22.689Z,-3.33
2023-02-17T03:30:50.947Z,-3.33
2023-02-17T03:33:19.124Z,-3.34
2023-02-17T03:35:47.238Z,-3.36
2023-02-17T03:38:16.815Z,-3.39
2023-02-17T03:40:45.019Z,-3.41
2023-02-17T03:43:13.538Z,-3.44
2023-02-17T03:45:41.667Z,-3.46
2023-02-17T03:48:10.886Z,-3.47
2023-02-17T03:50:38.875Z,-3.47
2023-02-17T03:53:07.068Z,-3.47
2023-02-17T03:55:35.408Z,-3.46
2023-02-17T03:58:03.896Z,-3.46
2023-02-17T04:00:31.913Z,-3.44
2023-02-17T04:03:00.180Z,-3.44
2023-02-17T04:05:28.312Z,-3.45
2023-02-17T04:07:56.453Z,-3.46
2023-02-17T04:10:24.492Z,-3.48
2023-02-17T04:12:54.160Z,-3.50
2023-02-17T04:15:22.256Z,-3.52
2023-02-17T04:17:50.224Z,-3.55
2023-02-17T04:20:18.322Z,-3.55
2023-02-17T04:22:46.701Z,-3.55
2023-02-17T04:25:14.700Z,-3.54
2023-02-17T04:27:42.849Z,-3.54
2023-02-17T04:30:13.892Z,-3.52
2023-02-17T04:32:41.847Z,-3.50
2023-02-17T04:35:09.904Z,-3.51
2023-02-17T04:37:38.010Z,-3.50
2023-02-17T04:40:10.501Z,-3.51
2023-02-17T04:42:38.853Z,-3.52
2023-02-17T04:45:07.848Z,-3.56
2023-02-17T04:47:36.080Z,-3.58
2023-02-17T04:50:06.150Z,-3.60
2023-02-17T04:52:34.582Z,-3.61
2023-02-17T04:55:02.927Z,-3.62
2023-02-17T04:57:31.093Z,-3.61
2023-02-17T04:59:59.329Z,-3.61
2023-02-17T05:02:28.459Z,-3.60
2023-02-17T05:04:56.506Z,-3.61
2023-02-17T05:07:25.291Z,-3.62
2023-02-17T05:09:54.290Z,-3.63
2023-02-17T05:12:22.348Z,-3.64
2023-02-17T05:14:50.644Z,-3.66
2023-02-17T05:17:19.068Z,-3.69
2023-02-17T05:19:47.632Z,-3.70
2023-02-17T05:22:16.117Z,-3.69
2023-02-17T05:24:44.143Z,-3.68
2023-02-17T05:27:13.578Z,-3.67
2023-02-17T05:29:41.986Z,-3.67
2023-02-17T05:32:10.189Z,-3.64
2023-02-17T05:34:39.094Z,-3.62
2023-02-17T05:37:08.195Z,-3.62
2023-02-17T05:39:36.632Z,-3.63
2023-02-17T05:42:04.952Z,-3.64
2023-02-17T05:44:33.361Z,-3.67
2023-02-17T05:47:02.242Z,-3.67
2023-02-17T05:49:30.539Z,-3.68
2023-02-17T05:51:59.233Z,-3.69
2023-02-17T05:54:29.013Z,-3.67
2023-02-17T05:56:57.183Z,-3.65
2023-02-17T05:59:27.055Z,-3.63
2023-02-17T06:01:55.334Z,-3.63
2023-02-17T06:04:24.488Z,-3.62
2023-02-17T06:06:54.122Z,-3.61
2023-02-17T06:09:22.170Z,-3.61
2023-02-17T06:11:50.433Z,-3.60
2023-02-17T06:14:19.689Z,-3.59
2023-02-17T06:16:48.008Z,-3.58
2023-02-17T06:19:18.330Z,-3.55
2023-02-17T06:21:47.128Z,-3.53
2023-02-17T06:24:15.537Z,-3.50
2023-02-17T06:26:44.267Z,-3.45
2023-02-17T06:29:12.335Z,-3.41
2023-02-17T06:31:40.655Z,-3.35
2023-02-17T06:34:10.761Z,-3.30
2023-02-17T06:36:39.559Z,-3.26
2023-02-17T06:39:09.778Z,-3.24
2023-02-17T06:41:37.993Z,-3.20
2023-02-17T06:44:07.920Z,-3.17
2023-02-17T06:46:36.426Z,-3.15
2023-02-17T06:49:04.866Z,-3.08
2023-02-17T06:51:32.977Z,-2.99
2023-02-17T06:54:01.061Z,-2.92
2023-02-17T06:56:29.282Z,-2.83
2023-02-17T06:58:57.649Z,-2.75
2023-02-17T07:01:28.165Z,-2.67
2023-02-17T07:03:58.720Z,-2.61
2023-02-17T07:06:29.567Z,-2.54
2023-02-17T07:08:57.797Z,-2.48
2023-02-17T07:11:27.361Z,-2.39
2023-02-17T07:13:56.618Z,-2.32
2023-02-17T07:16:25.008Z,-2.24
2023-02-17T07:18:53.345Z,-2.16
2023-02-17T07:21:22.739Z,-2.10
2023-02-17T07:23:53.530Z,-2.03
2023-02-17T07:26:21.821Z,-1.96
2023-02-17T07:28:49.908Z,-1.88
2023-02-17T07:31:24.723Z,-1.78
2023-02-17T07:33:53.178Z,-1.70
2023-02-17T07:36:21.595Z,-1.61
2023-02-17T07:38:50.445Z,-1.54
2023-02-17T07:41:21.828Z,-1.45
2023-02-17T07:43:54.841Z,-1.36
2023-02-17T07:46:23.796Z,-1.26
2023-02-17T07:48:52.359Z,-1.22
2023-02-17T07:51:22.549Z,-1.18
2023-02-17T07:53:52.418Z,-1.13
2023-02-17T07:56:23.090Z,-1.03
2023-02-17T07:58:53.712Z,-0.93
2023-02-17T08:01:24.504Z,-0.85
2023-02-17T08:03:54.158Z,-0.75
2023-02-17T08:06:27.176Z,-0.68
2023-02-17T08:09:15.492Z,-0.63
2023-02-17T08:12:05.160Z,-0.58
2023-02-17T08:14:33.683Z,-0.59
2023-02-17T08:17:02.366Z,-0.60
2023-02-17T08:19:46.709Z,-0.55
2023-02-17T08:22:18.145Z,-0.52
2023-02-17T08:24:50.911Z,-0.44
2023-02-17T08:27:22.438Z,-0.34
2023-02-17T08:29:50.942Z,-0.25
2023-02-17T08:32:20.183Z,-0.17
2023-02-17T08:34:48.876Z,-0.03
2023-02-17T08:37:19.658Z,0.09
2023-02-17T08:39:48.120Z,0.23
2023-02-17T08:42:18.048Z,0.38
2023-02-17T08:44:46.324Z,0.47
2023-02-17T08:47:15.300Z,0.66
2023-02-17T08:49:52.198Z,0.80
2023-02-17T08:52:21.115Z,0.91
2023-02-17T08:54:51.729Z,1.06
2023-02-17T08:57:23.725Z,1.19
2023-02-17T08:59:55.062Z,1.35
2023-02-17T09:02:23.220Z,1.48
2023-02-17T09:04:51.941Z,1.59
2023-02-17T09:07:20.050Z,1.71
2023-02-17T09:09:48.139Z,1.76
2023-02-17T09:12:17.041Z,1.83
2023-02-17T09:14:45.914Z,2.00
2023-02-17T09:17:14.364Z,2.11
2023-02-17T09:19:42.416Z,2.20
2023-02-17T09:22:31.655Z,2.35
2023-02-17T09:25:00.700Z,2.47
2023-02-17T09:27:30.969Z,2.57
2023-02-17T09:30:01.748Z,2.70
2023-02-17T09:32:30.242Z,2.80
2023-02-17T09:34:58.805Z,2.90
2023-02-17T09:37:27.185Z,2.93
2023-02-17T09:39:55.932Z,2.98
2023-02-17T09:42:28.417Z,2.96
2023-02-17T09:45:08.561Z,3.05
2023-02-17T09:47:51.864Z,3.20
2023-02-17T09:50:26.160Z,3.27
2023-02-17T09:53:11.344Z,3.36
2023-02-17T09:55:45.308Z,3.43
2023-02-17T09:58:31.125Z,3.56
2023-02-17T10:01:02.857Z,3.57
2023-02-17T10:03:56.089Z,3.67
2023-02-17T10:06:46.897Z,3.82
2023-02-17T10:09:36.189Z,3.92
2023-02-17T10:12:13.976Z,3.99
2023-02-17T10:14:51.373Z,4.08
2023-02-17T10:17:28.777Z,4.15
2023-02-17T10:20:11.604Z,4.28
2023-02-17T10:22:46.093Z,4.37
2023-02-17T10:25:17.857Z,4.38
2023-02-17T10:28:11.081Z,4.45
2023-02-17T10:30:56.229Z,4.54
2023-02-17T10:33:56.647Z,4.67
2023-02-17T10:36:26.796Z,4.81
2023-02-17T10:39:14.115Z,4.84
2023-02-17T10:41:55.121Z,4.96
2023-02-17T10:44:25.132Z,5.16
2023-02-17T10:46:55.246Z,5.42
2023-02-17T10:49:37.740Z,5.72
2023-02-17T10:52:15.959Z,5.75
2023-02-17T10:55:01.931Z,6.03
2023-02-17T10:57:38.462Z,6.14
2023-02-17T11:00:15.470Z,6.14
2023-02-17T11:02:46.359Z,6.31
2023-02-17T11:05:34.108Z,6.44
2023-02-17T11:08:24.018Z,6.60
2023-02-17T11:11:26.632Z,6.73
2023-02-17T11:14:07.762Z,6.90
2023-02-17T11:16:45.915Z,6.93
2023-02-17T11:19:27.579Z,7.11
2023-02-17T11:22:01.366Z,7.31
2023-02-17T11:24:32.013Z,7.46
2023-02-17T11:27:02.168Z,7.36
2023-02-17T11:29:30.867Z,7.27
2023-02-17T11:32:08.563Z,7.42
2023-02-17T11:34:39.612Z,7.47
2023-02-17T11:37:13.968Z,7.55
2023-02-17T11:39:46.485Z,7.47
2023-02-17T11:42:22.254Z,7.22
2023-02-17T11:44:53.093Z,7.21
2023-02-17T11:47:30.482Z,7.40
2023-02-17T11:50:45.930Z,7.38
2023-02-17T11:53:32.656Z,7.29
2023-02-17T11:56:08.894Z,7.46
2023-02-17T11:58:46.368Z,7.49
2023-02-17T12:01:37.143Z,7.51
2023-02-17T12:04:05.160Z,7.37
2023-02-17T12:06:36.124Z,7.36
2023-02-17T12:09:25.468Z,7.36
2023-02-17T12:12:16.774Z,7.31
2023-02-17T12:14:54.507Z,7.30
2023-02-17T12:17:56.654Z,7.34
2023-02-17T12:20:50.555Z,7.31
2023-02-17T12:23:50.998Z,7.24
2023-02-17T12:26:40.075Z,7.27
2023-02-17T12:29:20.117Z,7.27
2023-02-17T12:32:14.893Z,7.26
2023-02-17T12:34:49.939Z,7.15
2023-02-17T12:37:20.987Z,7.32
2023-02-17T12:39:57.386Z,7.32
2023-02-17T12:42:51.564Z,7.39
2023-02-17T12:45:24.098Z,7.41
2023-02-17T12:48:02.222Z,7.42
2023-02-17T12:50:36.995Z,7.33
2023-02-17T12:53:16.824Z,7.03
2023-02-17T12:56:01.176Z,7.17
2023-02-17T12:58:32.193Z,7.20
2023-02-17T13:01:10.916Z,7.19
2023-02-17T13:03:40.441Z,7.16
2023-02-17T13:06:22.058Z,7.18
2023-02-17T13:09:03.181Z,7.07
2023-02-17T13:11:39.770Z,7.05
2023-02-17T13:14:28.045Z,7.00
2023-02-17T13:16:56.381Z,6.97
2023-02-17T13:19:32.936Z,6.93
2023-02-17T13:22:02.600Z,6.94
2023-02-17T13:24:39.177Z,6.94
2023-02-17T13:27:22.391Z,6.93
2023-02-17T13:30:26.143Z,6.87
2023-02-17T13:33:07.490Z,6.90
2023-02-17T13:35:37.627Z,6.87
2023-02-17T13:38:05.769Z,6.86
2023-02-17T13:40:37.073Z,6.75
2023-02-17T13:43:24.686Z,6.68
2023-02-17T13:46:04.812Z,6.73
2023-02-17T13:48:36.752Z,6.52
2023-02-17T13:51:07.135Z,6.40
2023-02-17T13:53:38.303Z,6.35
2023-02-17T13:56:35.856Z,6.23
2023-02-17T13:59:18.941Z,6.11
2023-02-17T14:01:52.709Z,6.08
2023-02-17T14:04:28.614Z,6.08
2023-02-17T14:07:04.206Z,6.05
2023-02-17T14:09:34.404Z,6.06
2023-02-17T14:12:06.797Z,6.07
2023-02-17T14:14:38.152Z,5.98
2023-02-17T14:17:13.847Z,5.93
2023-02-17T14:19:47.626Z,5.98
2023-02-17T14:22:41.912Z,5.96
2023-02-17T14:25:26.772Z,6.01
2023-02-17T14:27:57.119Z,6.04
2023-02-17T14:30:39.313Z,6.06
2023-02-17T14:33:22.050Z,6.06
2023-02-17T14:36:00.701Z,6.05
2023-02-17T14:38:32.371Z,6.03
2023-02-17T14:41:01.330Z,6.04
2023-02-17T14:43:30.701Z,6.03
2023-02-17T14:45:58.926Z,6.01
2023-02-17T14:48:28.018Z,6.03
2023-02-17T14:50:57.800Z,5.99
2023-02-17T14:53:31.872Z,6.01
2023-02-17T14:56:04.979Z,6.02
2023-02-17T14:58:33.517Z,5.98
2023-02-17T15:01:02.902Z,5.94
2023-02-17T15:03:32.641Z,5.78
2023-02-17T15:06:01.340Z,5.82
2023-02-17T15:08:36.093Z,5.80
2023-02-17T15:11:04.425Z,5.74
2023-02-17T15:13:33.607Z,5.77
2023-02-17T15:16:02.007Z,5.67
2023-02-17T15:18:30.336Z,5.63
2023-02-17T15:20:58.672Z,5.59
2023-02-17T15:23:34.413Z,5.54
2023-02-17T15:26:04.004Z,5.53
2023-02-17T15:28:32.259Z,5.48
2023-02-17T15:31:01.623Z,5.44
2023-02-17T15:33:29.860Z,5.44
2023-02-17T15:35:58.274Z,5.34
2023-02-17T15:38:27.292Z,5.34
2023-02-17T15:40:58.518Z,5.34
2023-02-17T15:46:20.017Z,5.29
2023-02-17T15:48:50.135Z,5.31
2023-02-17T15:51:21.199Z,5.19
2023-02-17T15:53:57.656Z,5.16
2023-02-17T15:56:31.923Z,5.24
2023-02-17T15:59:08.444Z,5.23
2023-02-17T16:01:38.091Z,5.21
2023-02-17T16:04:06.963Z,5.11
2023-02-17T16:06:37.262Z,5.13
2023-02-17T16:09:07.355Z,5.14
2023-02-17T16:11:49.339Z,5.12
2023-02-17T16:14:25.170Z,5.06
2023-02-17T16:16:53.715Z,4.99
2023-02-17T16:19:22.659Z,4.96
2023-02-17T16:21:51.008Z,4.96
2023-02-17T16:24:19.265Z,4.92
2023-02-17T16:26:52.002Z,4.93
2023-02-17T16:29:22.981Z,4.92
2023-02-17T16:31:55.258Z,4.93
2023-02-17T16:34:24.176Z,4.92
2023-02-17T16:36:57.783Z,4.94
2023-02-17T16:39:31.388Z,4.85
2023-02-17T16:41:59.595Z,4.77
2023-02-17T16:44:29.169Z,4.69
2023-02-17T16:47:02.213Z,4.68
2023-02-17T16:49:34.227Z,4.62
2023-02-17T16:52:07.404Z,4.54
2023-02-17T16:54:38.234Z,4.54
2023-02-17T16:57:07.056Z,4.47
2023-02-17T16:59:37.342Z,4.44
2023-02-17T17:02:13.024Z,4.35
2023-02-17T17:04:41.764Z,4.35
2023-02-17T17:07:19.495Z,4.31
2023-02-17T17:10:14.352Z,4.28
2023-02-17T17:12:40.041Z,4.17
2023-02-17T17:15:09.158Z,4.11
2023-02-17T17:19:00.441Z,4.04
2023-02-17T17:21:42.956Z,3.93
2023-02-17T17:24:16.454Z,3.89
2023-02-17T17:26:53.406Z,3.85
2023-02-17T17:29:23.995Z,3.81
2023-02-17T17:31:52.196Z,3.74
2023-02-17T17:34:21.961Z,3.72
2023-02-17T17:36:53.270Z,3.71
2023-02-17T17:39:29.636Z,3.67
2023-02-17T17:47:01.648Z,3.59
2023-02-17T17:50:02.450Z,3.58
2023-02-17T17:52:32.816Z,3.59
2023-02-17T17:55:02.659Z,3.45
2023-02-17T17:57:53.960Z,3.47
2023-02-17T18:00:24.682Z,3.51
2023-02-17T18:09:30.255Z,3.47
2023-02-17T18:12:27.783Z,3.48
2023-02-17T18:14:56.257Z,3.49
2023-02-17T18:19:04.749Z,3.41
2023-02-17T18:21:41.343Z,3.41
2023-02-17T18:24:12.122Z,3.43
2023-02-17T18:26:41.047Z,3.45
2023-02-17T18:29:10.918Z,3.37
2023-02-17T18:31:39.560Z,3.43
2023-02-17T18:34:08.125Z,3.42
2023-02-17T18:36:42.936Z,3.38
2023-02-17T18:49:08.709Z,3.27
2023-02-17T18:51:37.459Z,3.27
2023-02-17T18:54:09.668Z,3.25
2023-02-17T18:56:38.169Z,3.23
2023-02-17T19:00:13.325Z,3.24
2023-02-17T19:07:07.244Z,3.16
2023-02-17T19:09:42.356Z,3.16
2023-02-17T19:12:14.984Z,3.11
2023-02-17T19:14:43.855Z,3.10
2023-02-17T19:17:13.707Z,3.04
2023-02-17T19:19:43.257Z,2.97
2023-02-17T19:22:12.687Z,3.03
2023-02-17T19:24:42.315Z,3.05
2023-02-17T19:27:50.657Z,3.06
2023-02-17T19:30:27.916Z,3.05
2023-02-17T19:32:57.040Z,2.99
2023-02-17T19:35:29.172Z,2.96
2023-02-17T19:43:59.759Z,2.93
2023-02-17T20:18:05.987Z,2.73
2023-02-17T20:48:34.973Z,2.68
2023-02-17T20:52:09.318Z,2.68
2023-02-17T20:54:39.364Z,2.68
2023-02-17T20:57:14.370Z,2.67
2023-02-17T21:00:30.788Z,2.71
2023-02-17T21:03:02.420Z,2.68
2023-02-17T21:05:35.490Z,2.57
2023-02-17T21:08:06.036Z,2.61
2023-02-17T21:10:41.672Z,2.60
2023-02-17T21:13:10.104Z,2.56
2023-02-17T21:15:39.584Z,2.61
2023-02-17T21:18:09.062Z,2.58
2023-02-17T23:20:48.398Z,2.77
2023-02-17T23:23:20.222Z,2.74
2023-02-17T23:25:56.015Z,2.74
